sensor_id;sensor_type;location;lat;lon;timestamp;temperature;humidity
57058;DHT22;55017;52.848;6.748;2023-06-14T00:01:02;17.00;62.40
57058;DHT22;55017;52.848;6.748;2023-06-14T00:03:31;17.00;63.00
57058;DHT22;55017;52.848;6.748;2023-06-14T00:05:57;16.90;63.00
57058;DHT22;55017;52.848;6.748;2023-06-14T00:08:22;16.80;63.10
57058;DHT22;55017;52.848;6.748;2023-06-14T00:10:50;16.70;63.30
57058;DHT22;55017;52.848;6.748;2023-06-14T00:13:15;16.80;63.70
57058;DHT22;55017;52.848;6.748;2023-06-14T00:15:41;16.80;63.60
57058;DHT22;55017;52.848;6.748;2023-06-14T00:18:08;16.80;63.80
57058;DHT22;55017;52.848;6.748;2023-06-14T00:20:35;16.80;63.80
57058;DHT22;55017;52.848;6.748;2023-06-14T00:23:01;16.70;63.80
57058;DHT22;55017;52.848;6.748;2023-06-14T00:25:27;16.60;64.10
57058;DHT22;55017;52.848;6.748;2023-06-14T00:27:56;16.70;64.30
57058;DHT22;55017;52.848;6.748;2023-06-14T00:30:22;16.60;64.40
57058;DHT22;55017;52.848;6.748;2023-06-14T00:32:48;16.30;64.90
57058;DHT22;55017;52.848;6.748;2023-06-14T00:35:15;16.40;64.80
57058;DHT22;55017;52.848;6.748;2023-06-14T00:37:41;16.30;65.20
57058;DHT22;55017;52.848;6.748;2023-06-14T00:40:07;16.20;65.50
57058;DHT22;55017;52.848;6.748;2023-06-14T00:42:33;16.30;65.80
57058;DHT22;55017;52.848;6.748;2023-06-14T00:44:59;16.20;65.40
57058;DHT22;55017;52.848;6.748;2023-06-14T00:47:25;16.20;66.00
57058;DHT22;55017;52.848;6.748;2023-06-14T00:49:51;16.20;66.00
57058;DHT22;55017;52.848;6.748;2023-06-14T00:52:17;16.20;66.50
57058;DHT22;55017;52.848;6.748;2023-06-14T00:54:43;16.20;65.90
57058;DHT22;55017;52.848;6.748;2023-06-14T00:57:10;16.20;66.50
57058;DHT22;55017;52.848;6.748;2023-06-14T00:59:46;16.10;66.60
57058;DHT22;55017;52.848;6.748;2023-06-14T01:02:13;16.20;66.80
57058;DHT22;55017;52.848;6.748;2023-06-14T01:04:41;16.10;67.00
57058;DHT22;55017;52.848;6.748;2023-06-14T01:07:35;16.10;67.00
57058;DHT22;55017;52.848;6.748;2023-06-14T01:12:58;16.00;67.20
57058;DHT22;55017;52.848;6.748;2023-06-14T01:15:24;16.00;67.20
57058;DHT22;55017;52.848;6.748;2023-06-14T01:17:51;16.00;68.10
57058;DHT22;55017;52.848;6.748;2023-06-14T01:20:17;16.00;68.20
57058;DHT22;55017;52.848;6.748;2023-06-14T01:22:55;15.90;68.40
57058;DHT22;55017;52.848;6.748;2023-06-14T01:25:21;15.90;68.60
57058;DHT22;55017;52.848;6.748;2023-06-14T01:27:53;15.90;68.60
57058;DHT22;55017;52.848;6.748;2023-06-14T01:30:20;15.80;69.10
57058;DHT22;55017;52.848;6.748;2023-06-14T01:32:47;15.80;69.20
57058;DHT22;55017;52.848;6.748;2023-06-14T01:35:13;15.80;69.60
57058;DHT22;55017;52.848;6.748;2023-06-14T01:37:40;15.70;70.00
57058;DHT22;55017;52.848;6.748;2023-06-14T01:40:07;15.60;69.80
57058;DHT22;55017;52.848;6.748;2023-06-14T01:42:35;15.60;70.20
57058;DHT22;55017;52.848;6.748;2023-06-14T01:45:02;15.60;70.60
57058;DHT22;55017;52.848;6.748;2023-06-14T01:47:28;15.50;70.40
57058;DHT22;55017;52.848;6.748;2023-06-14T01:49:54;15.50;71.00
57058;DHT22;55017;52.848;6.748;2023-06-14T01:52:19;15.40;71.40
57058;DHT22;55017;52.848;6.748;2023-06-14T01:54:45;15.30;71.90
57058;DHT22;55017;52.848;6.748;2023-06-14T01:57:13;15.20;72.40
57058;DHT22;55017;52.848;6.748;2023-06-14T01:59:38;15.10;72.60
57058;DHT22;55017;52.848;6.748;2023-06-14T02:02:04;15.20;72.90
57058;DHT22;55017;52.848;6.748;2023-06-14T02:04:30;15.10;73.60
57058;DHT22;55017;52.848;6.748;2023-06-14T02:06:55;15.10;73.50
57058;DHT22;55017;52.848;6.748;2023-06-14T02:09:21;15.10;73.30
57058;DHT22;55017;52.848;6.748;2023-06-14T02:11:46;15.00;74.10
57058;DHT22;55017;52.848;6.748;2023-06-14T02:14:12;15.00;74.40
57058;DHT22;55017;52.848;6.748;2023-06-14T02:16:38;15.00;74.60
57058;DHT22;55017;52.848;6.748;2023-06-14T02:19:05;14.90;74.90
57058;DHT22;55017;52.848;6.748;2023-06-14T02:21:30;14.90;74.30
57058;DHT22;55017;52.848;6.748;2023-06-14T02:23:56;14.90;75.30
57058;DHT22;55017;52.848;6.748;2023-06-14T02:26:23;14.80;75.50
57058;DHT22;55017;52.848;6.748;2023-06-14T02:28:49;14.90;75.50
57058;DHT22;55017;52.848;6.748;2023-06-14T02:31:14;14.80;75.50
57058;DHT22;55017;52.848;6.748;2023-06-14T02:33:41;14.70;76.10
57058;DHT22;55017;52.848;6.748;2023-06-14T02:36:07;14.60;76.50
57058;DHT22;55017;52.848;6.748;2023-06-14T02:38:32;14.70;77.40
57058;DHT22;55017;52.848;6.748;2023-06-14T02:40:58;14.60;77.40
57058;DHT22;55017;52.848;6.748;2023-06-14T02:43:25;14.60;77.80
57058;DHT22;55017;52.848;6.748;2023-06-14T02:45:51;14.60;78.10
57058;DHT22;55017;52.848;6.748;2023-06-14T02:48:17;14.50;78.40
57058;DHT22;55017;52.848;6.748;2023-06-14T02:50:43;14.60;78.90
57058;DHT22;55017;52.848;6.748;2023-06-14T02:53:08;14.40;79.10
57058;DHT22;55017;52.848;6.748;2023-06-14T02:55:34;14.40;79.00
57058;DHT22;55017;52.848;6.748;2023-06-14T02:58:05;14.40;80.40
57058;DHT22;55017;52.848;6.748;2023-06-14T03:00:31;14.30;80.40
57058;DHT22;55017;52.848;6.748;2023-06-14T03:02:57;14.20;81.10
57058;DHT22;55017;52.848;6.748;2023-06-14T03:05:22;14.30;81.00
57058;DHT22;55017;52.848;6.748;2023-06-14T03:07:49;14.10;82.30
57058;DHT22;55017;52.848;6.748;2023-06-14T03:10:15;14.10;82.90
57058;DHT22;55017;52.848;6.748;2023-06-14T03:12:41;14.10;82.00
57058;DHT22;55017;52.848;6.748;2023-06-14T03:15:07;14.10;82.40
57058;DHT22;55017;52.848;6.748;2023-06-14T03:17:32;14.10;82.90
57058;DHT22;55017;52.848;6.748;2023-06-14T03:20:00;14.00;84.20
57058;DHT22;55017;52.848;6.748;2023-06-14T03:22:26;14.10;84.60
57058;DHT22;55017;52.848;6.748;2023-06-14T03:24:52;14.00;84.60
57058;DHT22;55017;52.848;6.748;2023-06-14T03:27:19;14.00;84.70
57058;DHT22;55017;52.848;6.748;2023-06-14T03:29:45;14.10;84.70
57058;DHT22;55017;52.848;6.748;2023-06-14T03:32:11;14.10;85.10
57058;DHT22;55017;52.848;6.748;2023-06-14T03:34:36;14.00;86.20
57058;DHT22;55017;52.848;6.748;2023-06-14T03:37:04;14.00;86.10
57058;DHT22;55017;52.848;6.748;2023-06-14T03:39:30;14.00;87.40
57058;DHT22;55017;52.848;6.748;2023-06-14T03:41:56;14.00;87.50
57058;DHT22;55017;52.848;6.748;2023-06-14T03:44:22;14.00;88.10
57058;DHT22;55017;52.848;6.748;2023-06-14T03:46:47;14.00;89.20
57058;DHT22;55017;52.848;6.748;2023-06-14T03:49:13;14.00;89.00
57058;DHT22;55017;52.848;6.748;2023-06-14T03:51:41;14.00;88.50
57058;DHT22;55017;52.848;6.748;2023-06-14T03:54:07;14.00;88.90
57058;DHT22;55017;52.848;6.748;2023-06-14T03:56:33;14.00;89.50
57058;DHT22;55017;52.848;6.748;2023-06-14T03:58:58;14.10;90.30
57058;DHT22;55017;52.848;6.748;2023-06-14T04:01:24;14.10;89.90
57058;DHT22;55017;52.848;6.748;2023-06-14T04:03:52;14.10;90.30
57058;DHT22;55017;52.848;6.748;2023-06-14T04:06:18;14.10;90.40
57058;DHT22;55017;52.848;6.748;2023-06-14T04:08:45;14.10;90.80
57058;DHT22;55017;52.848;6.748;2023-06-14T04:11:11;14.20;91.20
57058;DHT22;55017;52.848;6.748;2023-06-14T04:13:36;14.20;91.30
57058;DHT22;55017;52.848;6.748;2023-06-14T04:16:04;14.20;91.30
57058;DHT22;55017;52.848;6.748;2023-06-14T04:18:30;14.20;91.70
57058;DHT22;55017;52.848;6.748;2023-06-14T04:20:56;14.40;91.40
57058;DHT22;55017;52.848;6.748;2023-06-14T04:23:22;14.40;92.00
57058;DHT22;55017;52.848;6.748;2023-06-14T04:25:47;14.40;92.00
57058;DHT22;55017;52.848;6.748;2023-06-14T04:28:15;14.40;91.90
57058;DHT22;55017;52.848;6.748;2023-06-14T04:30:42;14.40;91.90
57058;DHT22;55017;52.848;6.748;2023-06-14T04:33:07;14.50;92.20
57058;DHT22;55017;52.848;6.748;2023-06-14T04:35:33;14.60;92.30
57058;DHT22;55017;52.848;6.748;2023-06-14T04:38:03;14.60;92.90
57058;DHT22;55017;52.848;6.748;2023-06-14T04:40:36;14.70;92.70
57058;DHT22;55017;52.848;6.748;2023-06-14T04:43:08;14.80;93.40
57058;DHT22;55017;52.848;6.748;2023-06-14T04:45:34;14.80;92.30
57058;DHT22;55017;52.848;6.748;2023-06-14T04:47:59;14.90;93.20
57058;DHT22;55017;52.848;6.748;2023-06-14T04:50:25;15.00;92.20
57058;DHT22;55017;52.848;6.748;2023-06-14T04:52:52;15.00;92.20
57058;DHT22;55017;52.848;6.748;2023-06-14T04:55:18;15.30;92.50
57058;DHT22;55017;52.848;6.748;2023-06-14T04:57:45;15.20;92.00
57058;DHT22;55017;52.848;6.748;2023-06-14T05:00:11;15.20;92.50
57058;DHT22;55017;52.848;6.748;2023-06-14T05:02:37;15.20;92.50
57058;DHT22;55017;52.848;6.748;2023-06-14T05:05:04;15.40;92.00
57058;DHT22;55017;52.848;6.748;2023-06-14T05:07:33;15.40;92.10
57058;DHT22;55017;52.848;6.748;2023-06-14T05:09:59;15.40;92.00
57058;DHT22;55017;52.848;6.748;2023-06-14T05:12:25;15.70;92.00
57058;DHT22;55017;52.848;6.748;2023-06-14T05:14:50;15.80;92.00
57058;DHT22;55017;52.848;6.748;2023-06-14T05:17:16;15.90;91.50
57058;DHT22;55017;52.848;6.748;2023-06-14T05:19:42;16.00;91.10
57058;DHT22;55017;52.848;6.748;2023-06-14T05:22:08;16.10;90.40
57058;DHT22;55017;52.848;6.748;2023-06-14T05:24:34;16.10;90.60
57058;DHT22;55017;52.848;6.748;2023-06-14T05:27:00;16.20;89.80
57058;DHT22;55017;52.848;6.748;2023-06-14T05:29:25;16.30;89.50
57058;DHT22;55017;52.848;6.748;2023-06-14T05:31:52;16.20;89.40
57058;DHT22;55017;52.848;6.748;2023-06-14T05:34:18;16.30;89.80
57058;DHT22;55017;52.848;6.748;2023-06-14T05:36:44;16.30;89.80
57058;DHT22;55017;52.848;6.748;2023-06-14T05:39:09;16.40;89.10
57058;DHT22;55017;52.848;6.748;2023-06-14T05:41:35;16.50;89.20
57058;DHT22;55017;52.848;6.748;2023-06-14T05:44:01;16.60;89.40
57058;DHT22;55017;52.848;6.748;2023-06-14T05:46:26;16.50;88.30
57058;DHT22;55017;52.848;6.748;2023-06-14T05:48:54;16.70;87.70
57058;DHT22;55017;52.848;6.748;2023-06-14T05:51:20;16.70;87.10
57058;DHT22;55017;52.848;6.748;2023-06-14T05:53:46;16.90;87.00
57058;DHT22;55017;52.848;6.748;2023-06-14T05:56:12;16.90;87.10
57058;DHT22;55017;52.848;6.748;2023-06-14T05:58:38;17.20;87.00
57058;DHT22;55017;52.848;6.748;2023-06-14T06:01:04;17.20;86.20
57058;DHT22;55017;52.848;6.748;2023-06-14T06:03:30;17.30;85.10
57058;DHT22;55017;52.848;6.748;2023-06-14T06:05:55;17.40;84.10
57058;DHT22;55017;52.848;6.748;2023-06-14T06:08:21;17.60;84.80
57058;DHT22;55017;52.848;6.748;2023-06-14T06:10:46;17.70;83.40
57058;DHT22;55017;52.848;6.748;2023-06-14T06:13:12;17.70;83.10
57058;DHT22;55017;52.848;6.748;2023-06-14T06:15:38;17.80;82.40
57058;DHT22;55017;52.848;6.748;2023-06-14T06:18:03;17.90;81.50
57058;DHT22;55017;52.848;6.748;2023-06-14T06:20:29;17.90;81.20
57058;DHT22;55017;52.848;6.748;2023-06-14T06:23:00;18.20;80.50
57058;DHT22;55017;52.848;6.748;2023-06-14T06:25:26;18.30;79.60
57058;DHT22;55017;52.848;6.748;2023-06-14T06:27:57;18.40;79.80
57058;DHT22;55017;52.848;6.748;2023-06-14T06:30:23;18.50;79.30
57058;DHT22;55017;52.848;6.748;2023-06-14T06:32:49;18.60;78.70
57058;DHT22;55017;52.848;6.748;2023-06-14T06:35:16;18.80;77.90
57058;DHT22;55017;52.848;6.748;2023-06-14T06:37:42;18.90;77.80
57058;DHT22;55017;52.848;6.748;2023-06-14T06:40:08;19.00;76.50
57058;DHT22;55017;52.848;6.748;2023-06-14T06:42:35;19.20;75.10
57058;DHT22;55017;52.848;6.748;2023-06-14T06:45:00;19.30;73.40
57058;DHT22;55017;52.848;6.748;2023-06-14T06:47:27;19.40;74.60
57058;DHT22;55017;52.848;6.748;2023-06-14T06:49:52;19.40;74.10
57058;DHT22;55017;52.848;6.748;2023-06-14T06:52:18;19.60;73.70
57058;DHT22;55017;52.848;6.748;2023-06-14T06:54:43;19.80;73.90
57058;DHT22;55017;52.848;6.748;2023-06-14T06:57:09;20.00;71.30
57058;DHT22;55017;52.848;6.748;2023-06-14T06:59:36;20.00;71.80
57058;DHT22;55017;52.848;6.748;2023-06-14T07:02:02;20.10;71.00
57058;DHT22;55017;52.848;6.748;2023-06-14T07:04:28;20.20;69.80
57058;DHT22;55017;52.848;6.748;2023-06-14T07:06:53;20.40;70.60
57058;DHT22;55017;52.848;6.748;2023-06-14T07:09:19;20.50;68.10
57058;DHT22;55017;52.848;6.748;2023-06-14T07:11:47;20.60;69.60
57058;DHT22;55017;52.848;6.748;2023-06-14T07:14:13;20.60;68.00
57058;DHT22;55017;52.848;6.748;2023-06-14T07:16:39;20.90;68.10
57058;DHT22;55017;52.848;6.748;2023-06-14T07:19:04;20.90;67.70
57058;DHT22;55017;52.848;6.748;2023-06-14T07:21:30;21.00;67.60
57058;DHT22;55017;52.848;6.748;2023-06-14T07:23:56;21.30;65.80
57058;DHT22;55017;52.848;6.748;2023-06-14T07:26:22;21.30;67.10
57058;DHT22;55017;52.848;6.748;2023-06-14T07:28:48;21.30;65.00
57058;DHT22;55017;52.848;6.748;2023-06-14T07:31:17;21.50;66.60
57058;DHT22;55017;52.848;6.748;2023-06-14T07:33:44;21.60;65.10
57058;DHT22;55017;52.848;6.748;2023-06-14T07:36:10;21.60;63.80
57058;DHT22;55017;52.848;6.748;2023-06-14T07:38:35;21.70;64.40
57058;DHT22;55017;52.848;6.748;2023-06-14T07:41:02;21.80;62.40
57058;DHT22;55017;52.848;6.748;2023-06-14T07:43:27;22.00;64.60
57058;DHT22;55017;52.848;6.748;2023-06-14T07:45:53;22.10;64.00
57058;DHT22;55017;52.848;6.748;2023-06-14T07:48:18;22.30;64.10
57058;DHT22;55017;52.848;6.748;2023-06-14T07:50:44;22.40;63.70
57058;DHT22;55017;52.848;6.748;2023-06-14T07:53:10;22.60;63.70
57058;DHT22;55017;52.848;6.748;2023-06-14T07:55:36;22.80;62.20
57058;DHT22;55017;52.848;6.748;2023-06-14T07:58:05;22.90;62.50
57058;DHT22;55017;52.848;6.748;2023-06-14T08:00:31;23.00;61.20
57058;DHT22;55017;52.848;6.748;2023-06-14T08:02:57;23.10;59.80
57058;DHT22;55017;52.848;6.748;2023-06-14T08:05:25;23.20;57.40
57058;DHT22;55017;52.848;6.748;2023-06-14T08:07:51;23.20;59.40
57058;DHT22;55017;52.848;6.748;2023-06-14T08:10:17;23.20;57.00
57058;DHT22;55017;52.848;6.748;2023-06-14T08:12:43;23.30;57.90
57058;DHT22;55017;52.848;6.748;2023-06-14T08:15:09;23.30;56.90
57058;DHT22;55017;52.848;6.748;2023-06-14T08:17:35;23.40;58.10
57058;DHT22;55017;52.848;6.748;2023-06-14T08:20:00;23.50;58.20
57058;DHT22;55017;52.848;6.748;2023-06-14T08:22:26;23.60;56.90
57058;DHT22;55017;52.848;6.748;2023-06-14T08:24:53;23.70;55.70
57058;DHT22;55017;52.848;6.748;2023-06-14T08:27:20;23.70;57.00
57058;DHT22;55017;52.848;6.748;2023-06-14T08:29:45;23.80;56.70
57058;DHT22;55017;52.848;6.748;2023-06-14T08:32:12;23.90;57.00
57058;DHT22;55017;52.848;6.748;2023-06-14T08:34:37;24.00;56.70
57058;DHT22;55017;52.848;6.748;2023-06-14T08:37:03;23.90;54.30
57058;DHT22;55017;52.848;6.748;2023-06-14T08:39:29;24.10;54.40
57058;DHT22;55017;52.848;6.748;2023-06-14T08:41:56;24.20;54.40
57058;DHT22;55017;52.848;6.748;2023-06-14T08:44:22;24.30;53.50
57058;DHT22;55017;52.848;6.748;2023-06-14T08:46:48;24.20;51.60
57058;DHT22;55017;52.848;6.748;2023-06-14T08:49:16;24.40;52.90
57058;DHT22;55017;52.848;6.748;2023-06-14T08:51:43;24.40;53.30
57058;DHT22;55017;52.848;6.748;2023-06-14T08:54:10;24.50;54.20
57058;DHT22;55017;52.848;6.748;2023-06-14T08:56:38;24.30;50.80
57058;DHT22;55017;52.848;6.748;2023-06-14T08:59:04;24.40;52.80
57058;DHT22;55017;52.848;6.748;2023-06-14T09:01:33;24.50;54.10
57058;DHT22;55017;52.848;6.748;2023-06-14T09:04:00;24.80;54.40
57058;DHT22;55017;52.848;6.748;2023-06-14T09:06:25;24.90;52.70
57058;DHT22;55017;52.848;6.748;2023-06-14T09:08:54;25.10;53.50
57058;DHT22;55017;52.848;6.748;2023-06-14T09:11:21;25.20;53.50
57058;DHT22;55017;52.848;6.748;2023-06-14T09:13:48;25.30;49.40
57058;DHT22;55017;52.848;6.748;2023-06-14T09:16:14;25.10;52.60
57058;DHT22;55017;52.848;6.748;2023-06-14T09:18:44;25.20;51.60
57058;DHT22;55017;52.848;6.748;2023-06-14T09:21:11;25.30;52.10
57058;DHT22;55017;52.848;6.748;2023-06-14T09:23:38;25.30;52.80
57058;DHT22;55017;52.848;6.748;2023-06-14T09:26:22;25.40;52.20
57058;DHT22;55017;52.848;6.748;2023-06-14T09:28:49;25.40;51.20
57058;DHT22;55017;52.848;6.748;2023-06-14T09:31:20;25.50;52.40
57058;DHT22;55017;52.848;6.748;2023-06-14T09:33:48;25.60;52.10
57058;DHT22;55017;52.848;6.748;2023-06-14T09:36:32;25.50;49.80
57058;DHT22;55017;52.848;6.748;2023-06-14T09:38:59;25.50;50.40
57058;DHT22;55017;52.848;6.748;2023-06-14T09:41:36;25.40;47.50
57058;DHT22;55017;52.848;6.748;2023-06-14T09:44:05;25.50;50.80
57058;DHT22;55017;52.848;6.748;2023-06-14T09:46:31;25.90;51.20
57058;DHT22;55017;52.848;6.748;2023-06-14T09:48:57;25.80;48.10
57058;DHT22;55017;52.848;6.748;2023-06-14T09:51:23;25.70;47.30
57058;DHT22;55017;52.848;6.748;2023-06-14T09:53:49;25.50;49.00
57058;DHT22;55017;52.848;6.748;2023-06-14T09:56:30;25.60;48.50
57058;DHT22;55017;52.848;6.748;2023-06-14T09:58:58;25.70;50.20
57058;DHT22;55017;52.848;6.748;2023-06-14T10:01:24;26.00;50.20
57058;DHT22;55017;52.848;6.748;2023-06-14T10:03:57;26.00;47.40
57058;DHT22;55017;52.848;6.748;2023-06-14T10:06:26;26.20;49.00
57058;DHT22;55017;52.848;6.748;2023-06-14T10:08:56;26.40;47.80
57058;DHT22;55017;52.848;6.748;2023-06-14T10:11:23;26.50;48.40
57058;DHT22;55017;52.848;6.748;2023-06-14T10:13:49;26.50;47.60
57058;DHT22;55017;52.848;6.748;2023-06-14T10:16:23;26.50;44.90
57058;DHT22;55017;52.848;6.748;2023-06-14T10:19:27;26.40;45.60
57058;DHT22;55017;52.848;6.748;2023-06-14T10:22:06;26.50;47.20
57058;DHT22;55017;52.848;6.748;2023-06-14T10:24:37;26.50;44.00
57058;DHT22;55017;52.848;6.748;2023-06-14T10:27:06;26.40;46.80
57058;DHT22;55017;52.848;6.748;2023-06-14T10:32:27;26.40;44.90
57058;DHT22;55017;52.848;6.748;2023-06-14T10:34:58;26.50;46.00
57058;DHT22;55017;52.848;6.748;2023-06-14T10:37:25;26.60;43.60
57058;DHT22;55017;52.848;6.748;2023-06-14T10:39:51;26.70;46.00
57058;DHT22;55017;52.848;6.748;2023-06-14T10:42:18;26.70;43.40
57058;DHT22;55017;52.848;6.748;2023-06-14T10:44:55;26.60;43.60
57058;DHT22;55017;52.848;6.748;2023-06-14T10:47:27;26.80;45.60
57058;DHT22;55017;52.848;6.748;2023-06-14T10:50:03;26.90;44.40
57058;DHT22;55017;52.848;6.748;2023-06-14T10:52:33;27.00;46.10
57058;DHT22;55017;52.848;6.748;2023-06-14T10:57:36;27.20;43.00
57058;DHT22;55017;52.848;6.748;2023-06-14T11:00:04;27.20;44.60
57058;DHT22;55017;52.848;6.748;2023-06-14T11:05:26;27.10;46.10
57058;DHT22;55017;52.848;6.748;2023-06-14T11:10:38;27.00;42.40
57058;DHT22;55017;52.848;6.748;2023-06-14T11:13:04;27.10;45.50
57058;DHT22;55017;52.848;6.748;2023-06-14T11:15:31;27.20;43.90
57058;DHT22;55017;52.848;6.748;2023-06-14T11:17:59;27.20;43.90
57058;DHT22;55017;52.848;6.748;2023-06-14T11:20:26;27.30;44.30
57058;DHT22;55017;52.848;6.748;2023-06-14T11:22:53;27.20;43.00
57058;DHT22;55017;52.848;6.748;2023-06-14T11:25:19;27.20;43.80
57058;DHT22;55017;52.848;6.748;2023-06-14T11:27:45;27.20;44.00
57058;DHT22;55017;52.848;6.748;2023-06-14T11:30:11;27.30;45.10
57058;DHT22;55017;52.848;6.748;2023-06-14T11:32:37;27.30;43.70
57058;DHT22;55017;52.848;6.748;2023-06-14T11:35:03;27.40;44.20
57058;DHT22;55017;52.848;6.748;2023-06-14T11:37:31;27.20;43.00
57058;DHT22;55017;52.848;6.748;2023-06-14T11:39:58;27.40;44.30
57058;DHT22;55017;52.848;6.748;2023-06-14T11:42:26;27.60;44.50
57058;DHT22;55017;52.848;6.748;2023-06-14T11:44:54;27.80;43.90
57058;DHT22;55017;52.848;6.748;2023-06-14T11:47:19;27.90;44.80
57058;DHT22;55017;52.848;6.748;2023-06-14T11:49:46;28.00;42.90
57058;DHT22;55017;52.848;6.748;2023-06-14T11:52:11;27.90;43.50
57058;DHT22;55017;52.848;6.748;2023-06-14T11:54:37;28.00;42.50
57058;DHT22;55017;52.848;6.748;2023-06-14T11:57:04;28.00;43.40
57058;DHT22;55017;52.848;6.748;2023-06-14T11:59:30;27.80;44.30
57058;DHT22;55017;52.848;6.748;2023-06-14T12:01:56;27.50;43.10
57058;DHT22;55017;52.848;6.748;2023-06-14T12:04:28;27.60;44.20
57058;DHT22;55017;52.848;6.748;2023-06-14T12:06:54;27.60;44.60
57058;DHT22;55017;52.848;6.748;2023-06-14T12:09:21;27.60;43.80
57058;DHT22;55017;52.848;6.748;2023-06-14T12:12:00;27.70;44.00
57058;DHT22;55017;52.848;6.748;2023-06-14T12:14:30;27.80;45.00
57058;DHT22;55017;52.848;6.748;2023-06-14T12:17:06;28.00;45.30
57058;DHT22;55017;52.848;6.748;2023-06-14T12:19:32;28.20;44.50
57058;DHT22;55017;52.848;6.748;2023-06-14T12:21:59;28.00;43.30
57058;DHT22;55017;52.848;6.748;2023-06-14T12:24:28;28.20;44.20
57058;DHT22;55017;52.848;6.748;2023-06-14T12:26:57;28.00;40.90
57058;DHT22;55017;52.848;6.748;2023-06-14T12:29:25;27.90;41.20
57058;DHT22;55017;52.848;6.748;2023-06-14T12:31:50;28.00;43.80
57058;DHT22;55017;52.848;6.748;2023-06-14T12:34:16;28.30;44.40
57058;DHT22;55017;52.848;6.748;2023-06-14T12:36:42;28.30;43.00
57058;DHT22;55017;52.848;6.748;2023-06-14T12:39:10;28.20;41.80
57058;DHT22;55017;52.848;6.748;2023-06-14T12:41:35;28.00;42.60
57058;DHT22;55017;52.848;6.748;2023-06-14T12:44:02;27.90;41.20
57058;DHT22;55017;52.848;6.748;2023-06-14T12:46:30;27.80;44.40
57058;DHT22;55017;52.848;6.748;2023-06-14T12:48:56;27.90;45.10
57058;DHT22;55017;52.848;6.748;2023-06-14T12:51:22;28.00;43.50
57058;DHT22;55017;52.848;6.748;2023-06-14T12:53:49;28.20;43.80
57058;DHT22;55017;52.848;6.748;2023-06-14T12:56:14;28.30;43.80
57058;DHT22;55017;52.848;6.748;2023-06-14T12:58:41;28.50;43.30
57058;DHT22;55017;52.848;6.748;2023-06-14T13:01:07;28.70;43.60
57058;DHT22;55017;52.848;6.748;2023-06-14T13:03:32;28.60;42.50
57058;DHT22;55017;52.848;6.748;2023-06-14T13:06:01;28.60;41.90
57058;DHT22;55017;52.848;6.748;2023-06-14T13:08:28;28.60;43.80
57058;DHT22;55017;52.848;6.748;2023-06-14T13:10:54;28.80;43.80
57058;DHT22;55017;52.848;6.748;2023-06-14T13:13:20;28.70;42.60
57058;DHT22;55017;52.848;6.748;2023-06-14T13:15:46;28.50;42.10
57058;DHT22;55017;52.848;6.748;2023-06-14T13:18:12;28.20;42.70
57058;DHT22;55017;52.848;6.748;2023-06-14T13:20:41;27.90;41.70
57058;DHT22;55017;52.848;6.748;2023-06-14T13:23:07;28.00;41.60
57058;DHT22;55017;52.848;6.748;2023-06-14T13:25:37;28.20;43.20
57058;DHT22;55017;52.848;6.748;2023-06-14T13:28:04;28.20;44.90
57058;DHT22;55017;52.848;6.748;2023-06-14T13:30:30;28.40;43.00
57058;DHT22;55017;52.848;6.748;2023-06-14T13:32:56;28.60;41.90
57058;DHT22;55017;52.848;6.748;2023-06-14T13:35:23;28.70;42.80
57058;DHT22;55017;52.848;6.748;2023-06-14T13:37:48;28.70;42.70
57058;DHT22;55017;52.848;6.748;2023-06-14T13:40:14;28.40;42.10
57058;DHT22;55017;52.848;6.748;2023-06-14T13:42:41;28.30;41.60
57058;DHT22;55017;52.848;6.748;2023-06-14T13:45:07;28.30;42.60
57058;DHT22;55017;52.848;6.748;2023-06-14T13:47:33;28.60;42.20
57058;DHT22;55017;52.848;6.748;2023-06-14T13:49:59;28.50;41.30
57058;DHT22;55017;52.848;6.748;2023-06-14T13:52:24;28.40;41.90
57058;DHT22;55017;52.848;6.748;2023-06-14T13:54:50;28.50;41.70
57058;DHT22;55017;52.848;6.748;2023-06-14T13:57:16;28.50;41.10
57058;DHT22;55017;52.848;6.748;2023-06-14T13:59:43;28.70;41.50
57058;DHT22;55017;52.848;6.748;2023-06-14T14:02:10;28.70;41.00
57058;DHT22;55017;52.848;6.748;2023-06-14T14:04:35;29.10;41.50
57058;DHT22;55017;52.848;6.748;2023-06-14T14:07:02;30.20;39.80
57058;DHT22;55017;52.848;6.748;2023-06-14T14:09:28;30.90;38.60
57058;DHT22;55017;52.848;6.748;2023-06-14T14:11:53;32.00;39.50
57058;DHT22;55017;52.848;6.748;2023-06-14T14:14:19;33.00;38.10
57058;DHT22;55017;52.848;6.748;2023-06-14T14:16:44;34.00;37.20
57058;DHT22;55017;52.848;6.748;2023-06-14T14:19:10;34.50;35.80
57058;DHT22;55017;52.848;6.748;2023-06-14T14:21:35;34.80;34.30
57058;DHT22;55017;52.848;6.748;2023-06-14T14:24:01;35.20;34.50
57058;DHT22;55017;52.848;6.748;2023-06-14T14:26:27;35.60;34.80
57058;DHT22;55017;52.848;6.748;2023-06-14T14:28:53;35.00;34.40
57058;DHT22;55017;52.848;6.748;2023-06-14T14:31:19;33.30;33.70
57058;DHT22;55017;52.848;6.748;2023-06-14T14:33:44;32.10;35.70
57058;DHT22;55017;52.848;6.748;2023-06-14T14:36:10;31.30;38.40
57058;DHT22;55017;52.848;6.748;2023-06-14T14:38:35;31.10;39.00
57058;DHT22;55017;52.848;6.748;2023-06-14T14:41:01;31.10;39.30
57058;DHT22;55017;52.848;6.748;2023-06-14T14:43:27;31.10;38.90
57058;DHT22;55017;52.848;6.748;2023-06-14T14:45:55;31.10;39.10
57058;DHT22;55017;52.848;6.748;2023-06-14T14:48:21;30.90;38.20
57058;DHT22;55017;52.848;6.748;2023-06-14T14:50:46;30.40;38.90
57058;DHT22;55017;52.848;6.748;2023-06-14T14:53:12;29.70;39.70
57058;DHT22;55017;52.848;6.748;2023-06-14T14:55:38;29.10;39.80
57058;DHT22;55017;52.848;6.748;2023-06-14T14:58:05;29.00;40.40
57058;DHT22;55017;52.848;6.748;2023-06-14T15:00:32;29.10;41.60
57058;DHT22;55017;52.848;6.748;2023-06-14T15:02:57;29.20;40.90
57058;DHT22;55017;52.848;6.748;2023-06-14T15:05:23;29.20;40.40
57058;DHT22;55017;52.848;6.748;2023-06-14T15:07:48;29.10;39.50
57058;DHT22;55017;52.848;6.748;2023-06-14T15:10:14;29.10;40.90
57058;DHT22;55017;52.848;6.748;2023-06-14T15:12:40;29.10;41.50
57058;DHT22;55017;52.848;6.748;2023-06-14T15:15:06;29.00;40.00
57058;DHT22;55017;52.848;6.748;2023-06-14T15:17:31;28.80;40.80
57058;DHT22;55017;52.848;6.748;2023-06-14T15:19:57;28.90;40.60
57058;DHT22;55017;52.848;6.748;2023-06-14T15:22:22;29.10;39.70
57058;DHT22;55017;52.848;6.748;2023-06-14T15:24:48;28.90;38.30
57058;DHT22;55017;52.848;6.748;2023-06-14T15:27:13;28.70;39.40
57058;DHT22;55017;52.848;6.748;2023-06-14T15:29:41;28.50;39.80
57058;DHT22;55017;52.848;6.748;2023-06-14T15:32:07;28.20;40.00
57058;DHT22;55017;52.848;6.748;2023-06-14T15:34:33;28.00;40.70
57058;DHT22;55017;52.848;6.748;2023-06-14T15:36:59;27.80;40.80
57058;DHT22;55017;52.848;6.748;2023-06-14T15:39:25;27.50;39.80
57058;DHT22;55017;52.848;6.748;2023-06-14T15:41:52;27.40;40.90